createdAt,value
2023-02-14T00:01:50.794Z,68.41
2023-02-14T00:04:19.732Z,68.02
2023-02-14T00:06:48.646Z,68.11
2023-02-14T00:09:19.686Z,68.20
2023-02-14T00:11:48.470Z,66.43
2023-02-14T00:14:35.696Z,66.64
2023-02-14T00:17:04.691Z,65.39
2023-02-14T00:19:34.945Z,66.36
2023-02-14T00:22:04.928Z,69.36
2023-02-14T00:24:33.622Z,68.61
2023-02-14T00:27:02.192Z,68.22
2023-02-14T00:29:32.338Z,67.72
2023-02-14T00:32:01.704Z,68.46
2023-02-14T00:34:30.300Z,67.11
2023-02-14T00:37:00.614Z,67.28
2023-02-14T00:39:29.122Z,66.55
2023-02-14T00:41:57.687Z,64.70
2023-02-14T00:44:26.271Z,65.78
2023-02-14T00:46:54.765Z,66.30
2023-02-14T00:49:25.074Z,64.84
2023-02-14T00:51:53.450Z,66.99
2023-02-14T00:54:21.961Z,66.52
2023-02-14T00:56:50.413Z,64.25
2023-02-14T00:59:19.302Z,65.52
2023-02-14T01:01:47.697Z,63.41
2023-02-14T01:04:16.272Z,63.21
2023-02-14T01:06:44.757Z,64.44
2023-02-14T01:09:14.882Z,66.13
2023-02-14T01:11:43.253Z,65.73
2023-02-14T01:14:11.763Z,66.00
2023-02-14T01:16:40.359Z,65.70
2023-02-14T01:19:09.505Z,64.94
2023-02-14T01:21:38.111Z,66.20
2023-02-14T01:24:08.480Z,65.09
2023-02-14T01:26:37.300Z,64.75
2023-02-14T01:29:06.636Z,65.66
2023-02-14T01:31:35.851Z,67.73
2023-02-14T01:34:04.492Z,67.60
2023-02-14T01:36:37.527Z,66.63
2023-02-14T01:39:14.023Z,65.57
2023-02-14T01:41:45.459Z,64.85
2023-02-14T01:44:17.163Z,64.19
2023-02-14T01:46:46.462Z,63.85
2023-02-14T01:49:20.377Z,66.11
2023-02-14T01:51:53.052Z,66.00
2023-02-14T01:54:24.196Z,67.79
2023-02-14T01:56:59.178Z,66.63
2023-02-14T01:59:34.254Z,65.40
2023-02-14T02:02:03.733Z,66.13
2023-02-14T02:04:40.239Z,65.19
2023-02-14T02:07:17.862Z,65.00
2023-02-14T02:09:59.716Z,64.46
2023-02-14T02:12:30.803Z,64.86
2023-02-14T02:15:00.673Z,64.71
2023-02-14T02:17:52.804Z,65.33
2023-02-14T02:20:29.177Z,65.32
2023-02-14T02:23:23.762Z,64.65
2023-02-14T02:26:10.981Z,64.96
2023-02-14T02:29:10.083Z,65.84
2023-02-14T02:32:03.565Z,66.81
2023-02-14T02:34:56.235Z,67.56
2023-02-14T02:37:41.367Z,67.97
2023-02-14T02:40:25.727Z,68.67
2023-02-14T02:43:08.962Z,67.53
2023-02-14T02:46:12.330Z,67.57
2023-02-14T02:49:41.152Z,68.26
2023-02-14T02:52:41.504Z,69.95
2023-02-14T02:55:23.265Z,71.24
2023-02-14T02:57:53.769Z,68.64
2023-02-14T03:00:24.591Z,70.36
2023-02-14T03:03:16.432Z,71.26
2023-02-14T03:05:45.459Z,70.97
2023-02-14T03:08:17.826Z,69.83
2023-02-14T03:10:46.820Z,70.62
2023-02-14T03:13:27.843Z,69.90
2023-02-14T03:16:21.980Z,69.98
2023-02-14T03:19:16.975Z,70.12
2023-02-14T03:21:55.389Z,69.94
2023-02-14T03:24:33.633Z,70.02
2023-02-14T03:27:32.898Z,69.69
2023-02-14T03:30:13.716Z,69.59
2023-02-14T03:33:06.425Z,68.74
2023-02-14T03:35:44.060Z,68.40
2023-02-14T03:38:22.299Z,67.53
2023-02-14T03:41:04.252Z,66.96
2023-02-14T03:43:57.999Z,67.89
2023-02-14T03:46:32.465Z,68.04
2023-02-14T03:49:06.887Z,67.87
2023-02-14T03:51:37.784Z,68.47
2023-02-14T03:54:11.176Z,69.85
2023-02-14T03:56:48.455Z,69.55
2023-02-14T03:59:25.444Z,67.58
2023-02-14T04:02:27.307Z,68.12
2023-02-14T04:04:59.055Z,68.67
2023-02-14T04:07:27.554Z,68.32
2023-02-14T04:09:56.133Z,68.03
2023-02-14T04:12:37.065Z,68.08
2023-02-14T04:15:07.528Z,68.59
2023-02-14T04:17:54.463Z,68.64
2023-02-14T04:20:23.123Z,67.95
2023-02-14T04:22:54.495Z,68.38
2023-02-14T04:25:23.663Z,67.34
2023-02-14T04:27:52.494Z,67.57
2023-02-14T04:30:23.116Z,66.97
2023-02-14T04:32:51.870Z,66.34
2023-02-14T04:35:20.290Z,66.37
2023-02-14T04:37:48.853Z,66.54
2023-02-14T04:40:17.723Z,66.11
2023-02-14T04:42:47.153Z,66.40
2023-02-14T04:45:15.811Z,65.68
2023-02-14T04:47:44.307Z,65.48
2023-02-14T04:50:13.515Z,67.00
2023-02-14T04:52:42.004Z,66.24
2023-02-14T04:55:10.766Z,65.30
2023-02-14T04:57:39.166Z,64.59
2023-02-14T05:00:08.782Z,64.63
2023-02-14T05:02:37.463Z,64.11
2023-02-14T05:05:06.732Z,64.97
2023-02-14T05:07:35.310Z,64.74
2023-02-14T05:10:05.470Z,64.74
2023-02-14T05:12:34.014Z,64.45
2023-02-14T05:15:02.608Z,64.78
2023-02-14T05:17:31.180Z,64.76
2023-02-14T05:20:00.329Z,64.38
2023-02-14T05:26:05.984Z,64.76
2023-02-14T05:28:34.874Z,64.78
2023-02-14T05:31:03.634Z,64.53
2023-02-14T05:33:32.530Z,65.16
2023-02-14T05:36:03.107Z,64.51
2023-02-14T05:38:33.676Z,64.59
2023-02-14T05:41:03.028Z,64.44
2023-02-14T05:43:32.175Z,64.58
2023-02-14T05:46:00.748Z,64.60
2023-02-14T05:48:29.873Z,65.01
2023-02-14T05:51:07.719Z,65.65
2023-02-14T05:53:36.874Z,65.94
2023-02-14T05:56:07.417Z,65.30
2023-02-14T05:58:36.907Z,65.17
2023-02-14T06:01:05.782Z,65.64
2023-02-14T06:03:34.590Z,65.81
2023-02-14T06:06:06.392Z,65.72
2023-02-14T06:08:38.186Z,65.60
2023-02-14T06:11:07.317Z,66.14
2023-02-14T06:13:35.878Z,66.28
2023-02-14T06:16:05.392Z,66.31
2023-02-14T06:18:34.270Z,66.24
2023-02-14T06:21:04.703Z,66.34
2023-02-14T06:23:34.503Z,66.45
2023-02-14T06:26:03.878Z,66.75
2023-02-14T06:28:32.284Z,66.59
2023-02-14T06:31:01.574Z,66.60
2023-02-14T06:33:30.600Z,66.29
2023-02-14T06:35:59.563Z,65.65
2023-02-14T06:38:28.573Z,65.42
2023-02-14T06:41:05.092Z,65.04
2023-02-14T06:43:35.153Z,65.06
2023-02-14T06:46:04.881Z,64.97
2023-02-14T06:48:35.079Z,64.52
2023-02-14T06:51:04.689Z,64.55
2023-02-14T06:53:34.688Z,64.57
2023-02-14T06:56:05.939Z,64.81
2023-02-14T06:58:35.354Z,64.16
2023-02-14T07:01:04.366Z,64.10
2023-02-14T07:03:33.568Z,63.95
2023-02-14T07:06:03.793Z,64.17
2023-02-14T07:08:34.748Z,63.79
2023-02-14T07:11:04.006Z,63.87
2023-02-14T07:13:33.562Z,63.47
2023-02-14T07:16:03.033Z,63.74
2023-02-14T07:18:32.124Z,63.91
2023-02-14T07:21:01.314Z,63.98
2023-02-14T07:23:30.197Z,63.63
2023-02-14T07:25:59.084Z,63.60
2023-02-14T07:28:27.677Z,63.70
2023-02-14T07:31:03.109Z,63.40
2023-02-14T07:33:32.207Z,63.45
2023-02-14T07:36:05.816Z,63.41
2023-02-14T07:38:35.576Z,63.44
2023-02-14T07:41:04.722Z,63.09
2023-02-14T07:43:34.688Z,63.43
2023-02-14T07:46:03.743Z,63.57
2023-02-14T07:48:34.156Z,63.23
2023-02-14T07:51:03.774Z,63.11
2023-02-14T07:53:34.012Z,63.22
2023-02-14T07:56:05.805Z,63.44
2023-02-14T07:58:36.169Z,63.44
2023-02-14T08:01:04.862Z,63.04
2023-02-14T08:03:35.944Z,63.09
2023-02-14T08:06:05.108Z,63.19
2023-02-14T08:08:33.681Z,63.58
2023-02-14T08:11:03.295Z,63.43
2023-02-14T08:13:34.683Z,63.39
2023-02-14T08:16:09.772Z,63.69
2023-02-14T08:18:40.778Z,63.65
2023-02-14T08:21:11.467Z,63.74
2023-02-14T08:23:40.028Z,63.62
2023-02-14T08:26:08.920Z,63.76
2023-02-14T08:28:37.499Z,63.54
2023-02-14T08:31:07.072Z,64.00
2023-02-14T08:33:35.780Z,63.51
2023-02-14T08:36:04.889Z,63.69
2023-02-14T08:38:33.782Z,63.41
2023-02-14T08:41:08.077Z,63.66
2023-02-14T08:43:38.408Z,63.91
2023-02-14T08:46:07.867Z,64.10
2023-02-14T08:48:39.537Z,64.02
2023-02-14T08:51:12.438Z,64.20
2023-02-14T08:53:44.651Z,64.15
2023-02-14T08:56:15.771Z,64.35
2023-02-14T08:58:45.302Z,64.17
2023-02-14T09:01:17.199Z,64.50
2023-02-14T09:03:49.063Z,64.63
2023-02-14T09:06:18.057Z,64.56
2023-02-14T09:08:47.176Z,64.68
2023-02-14T09:11:24.622Z,64.86
2023-02-14T09:13:54.392Z,64.89
2023-02-14T09:16:25.121Z,64.80
2023-02-14T09:18:55.081Z,64.62
2023-02-14T09:21:30.382Z,65.08
2023-02-14T09:23:58.960Z,65.13
2023-02-14T09:26:30.137Z,64.92
2023-02-14T09:28:59.407Z,65.16
2023-02-14T09:31:28.386Z,65.34
2023-02-14T09:34:15.732Z,65.41
2023-02-14T09:37:08.065Z,65.43
2023-02-14T09:39:38.030Z,65.33
2023-02-14T09:42:07.290Z,65.56
2023-02-14T09:44:51.822Z,65.53
2023-02-14T09:47:35.875Z,65.52
2023-02-14T09:50:07.920Z,65.62
2023-02-14T09:52:38.020Z,65.80
2023-02-14T09:55:13.453Z,65.99
2023-02-14T09:58:22.292Z,65.95
2023-02-14T10:01:15.844Z,66.03
2023-02-14T10:04:25.545Z,66.33
2023-02-14T10:07:00.895Z,66.32
2023-02-14T10:10:02.952Z,66.07
2023-02-14T10:12:37.196Z,66.39
2023-02-14T10:15:19.673Z,66.51
2023-02-14T10:18:02.290Z,66.64
2023-02-14T10:20:39.688Z,66.79
2023-02-14T10:23:35.914Z,66.98
2023-02-14T10:26:07.798Z,66.89
2023-02-14T10:28:46.387Z,67.07
2023-02-14T10:31:45.189Z,67.31
2023-02-14T10:38:04.383Z,67.46
2023-02-14T10:40:39.151Z,67.84
2023-02-14T10:43:28.588Z,67.71
2023-02-14T10:46:29.532Z,67.49
2023-02-14T10:49:26.188Z,67.71
2023-02-14T10:52:18.243Z,68.04
2023-02-14T10:54:57.672Z,67.98
2023-02-14T10:57:30.335Z,67.82
2023-02-14T11:00:08.733Z,67.90
2023-02-14T11:02:45.043Z,68.01
2023-02-14T11:05:36.035Z,68.09
2023-02-14T11:08:21.814Z,68.47
2023-02-14T11:10:51.383Z,69.20
2023-02-14T11:13:33.320Z,69.60
2023-02-14T11:16:05.632Z,70.15
2023-02-14T11:18:40.013Z,70.76
2023-02-14T11:21:11.725Z,70.84
2023-02-14T11:23:43.604Z,70.91
2023-02-14T11:26:17.044Z,71.08
2023-02-14T11:28:57.243Z,71.26
2023-02-14T11:31:32.749Z,71.36
2023-02-14T11:34:05.508Z,71.70
2023-02-14T11:36:43.351Z,71.78
2023-02-14T11:39:20.853Z,71.51
2023-02-14T11:41:54.146Z,71.30
2023-02-14T11:44:28.895Z,70.93
2023-02-14T11:47:17.368Z,70.43
2023-02-14T11:50:06.475Z,70.15
2023-02-14T11:52:56.440Z,69.79
2023-02-14T11:55:30.519Z,69.80
2023-02-14T11:58:06.653Z,69.80
2023-02-14T12:00:37.025Z,69.84
2023-02-14T12:03:09.493Z,69.69
2023-02-14T12:05:50.402Z,69.58
2023-02-14T12:08:27.601Z,69.57
2023-02-14T12:11:23.098Z,69.48
2023-02-14T12:13:59.793Z,69.42
2023-02-14T12:16:47.031Z,69.53
2023-02-14T12:19:24.953Z,69.11
2023-02-14T12:22:01.606Z,68.94
2023-02-14T12:24:34.657Z,68.74
2023-02-14T12:27:10.482Z,68.51
2023-02-14T12:29:56.251Z,68.20
2023-02-14T12:32:32.330Z,68.02
2023-02-14T12:35:18.433Z,67.88
2023-02-14T12:38:16.440Z,67.75
2023-02-14T12:41:10.345Z,67.65
2023-02-14T12:43:51.001Z,67.35
2023-02-14T12:46:52.476Z,67.42
2023-02-14T12:49:52.812Z,67.59
2023-02-14T12:52:50.048Z,67.64
2023-02-14T12:55:30.618Z,67.46
2023-02-14T12:58:27.344Z,67.10
2023-02-14T13:01:09.016Z,67.50
2023-02-14T13:04:11.473Z,67.58
2023-02-14T13:07:02.709Z,66.84
2023-02-14T13:09:53.878Z,66.47
2023-02-14T13:12:46.499Z,66.11
2023-02-14T13:15:24.402Z,66.18
2023-02-14T13:18:14.268Z,66.59
2023-02-14T13:20:52.040Z,66.73
2023-02-14T13:23:38.869Z,66.89
2023-02-14T13:26:22.723Z,66.71
2023-02-14T13:29:18.119Z,66.72
2023-02-14T13:31:48.275Z,66.91
2023-02-14T13:34:32.705Z,66.67
2023-02-14T13:37:06.786Z,66.63
2023-02-14T13:39:48.008Z,66.68
2023-02-14T13:42:49.359Z,66.35
2023-02-14T13:45:30.600Z,65.80
2023-02-14T13:48:11.796Z,65.60
2023-02-14T13:50:50.124Z,65.55
2023-02-14T13:53:47.920Z,65.18
2023-02-14T13:56:19.905Z,65.24
2023-02-14T13:58:56.616Z,65.40
2023-02-14T14:01:31.691Z,65.45
2023-02-14T14:04:05.068Z,65.36
2023-02-14T14:07:02.778Z,65.29
2023-02-14T14:09:40.865Z,65.76
2023-02-14T14:12:25.058Z,65.69
2023-02-14T14:15:05.890Z,65.61
2023-02-14T14:17:37.756Z,65.88
2023-02-14T14:20:43.402Z,66.22
2023-02-14T14:23:37.316Z,66.15
2023-02-14T14:26:40.715Z,66.30
2023-02-14T14:29:30.618Z,66.42
2023-02-14T14:32:01.769Z,66.34
2023-02-14T22:08:42.420Z,68.85
2023-02-14T22:11:14.074Z,68.92
2023-02-14T22:13:43.914Z,69.01
2023-02-14T22:16:15.314Z,69.17
2023-02-14T22:18:43.821Z,69.31
2023-02-14T22:21:14.775Z,69.61
2023-02-14T22:23:43.688Z,69.53
2023-02-14T22:26:24.431Z,69.49
2023-02-14T22:28:57.230Z,69.59
2023-02-14T22:31:27.808Z,69.68
2023-02-14T22:33:57.054Z,69.84
2023-02-14T22:36:25.577Z,69.93
2023-02-14T22:38:54.086Z,70.12
2023-02-14T22:41:24.322Z,70.17
2023-02-14T22:43:54.030Z,70.18
2023-02-14T22:46:28.687Z,70.23
2023-02-14T22:48:58.042Z,70.46
2023-02-14T22:51:34.944Z,70.46
2023-02-14T22:54:15.173Z,70.54
2023-02-14T22:56:47.137Z,70.63
2023-02-14T22:59:22.905Z,70.78
2023-02-14T23:01:53.341Z,70.80
2023-02-14T23:04:24.715Z,70.94
2023-02-14T23:06:53.963Z,70.89
2023-02-14T23:09:23.897Z,71.17
2023-02-14T23:11:52.463Z,71.39
2023-02-14T23:14:39.926Z,71.42
2023-02-14T23:17:24.613Z,71.49
2023-02-14T23:20:12.083Z,71.72
2023-02-14T23:22:41.513Z,71.67
2023-02-14T23:25:12.413Z,71.71
2023-02-14T23:27:44.381Z,71.76
2023-02-14T23:30:18.709Z,71.90
2023-02-14T23:32:48.333Z,72.00
2023-02-14T23:35:16.991Z,71.98
2023-02-14T23:37:45.477Z,72.05
2023-02-14T23:40:13.870Z,72.14
2023-02-14T23:42:42.228Z,72.33
2023-02-14T23:45:29.195Z,72.23
2023-02-14T23:48:02.976Z,72.32
2023-02-14T23:50:31.750Z,72.60
2023-02-14T23:53:00.022Z,72.61
2023-02-14T23:55:28.497Z,72.63
2023-02-14T23:57:56.977Z,72.80
